Data for 04/15/2015

Time Sea-Level Adjusted Pressure Absolute Pressure Temperature Relative Humidity Dew Point   
(mb) (inHg) (mb) (inHg) (C) (F) (%) (C) (F)
00:05 1016 30 845 24.95 -2.2 28.1 95 -2.9 26.8
00:10 1016 30 846 24.98 -2.1 28.1 94 -2.9 26.7
00:15 1016 30 846 24.98 -2.2 28 94 -3 26.6
00:20 1017 30.03 846 24.98 -2.2 28 94 -3 26.5
00:25 1017 30.03 846 24.98 -2.1 28.2 94 -3 26.5
00:30 1017 30.03 846 24.98 -2.1 28.2 93 -3 26.5
00:35 1017 30.03 846 24.98 -2.1 28.3 93 -3.1 26.4
00:40 1017 30.03 846 24.98 -2.1 28.3 93 -3.1 26.4
00:45 1017 30.03 846 24.98 -2 28.3 92 -3.2 26.3
00:50 1017 30.03 846 24.98 -2.1 28.3 91 -3.3 26
00:55 1017 30.03 846 24.98 -2 28.3 91 -3.3 26
01:00 1016 30 846 24.98 -2 28.4 91 -3.3 26
01:05 1016 30 846 24.98 -2 28.4 90 -3.5 25.7
01:10 1017 30.03 846 24.98 -2 28.5 88 -3.7 25.3
01:15 1017 30.03 846 24.98 -1.9 28.5 88 -3.7 25.3
01:20 1017 30.03 846 24.98 -1.9 28.5 87 -3.8 25.1
01:25 1017 30.03 846 24.98 -1.9 28.5 86 -3.9 24.9
01:30 1017 30.03 846 24.98 -1.9 28.6 86 -4 24.8
01:35 1017 30.03 846 24.98 -1.8 28.7 86 -3.8 25.1
01:40 1017 30.03 846 24.98 -1.9 28.7 86 -3.9 25
01:45 1017 30.03 846 24.98 -1.8 28.7 86 -3.8 25.1
01:50 1017 30.03 846 24.98 -1.8 28.8 84 -4.2 24.4
01:55 1017 30.03 846 24.98 -1.8 28.8 83 -4.3 24.3
02:00 1017 30.03 846 24.98 -1.7 28.9 84 -4.1 24.7
02:05 1017 30.03 846 24.98 -1.7 28.9 83 -4.3 24.3
02:10 1017 30.03 846 24.98 -1.6 29 82 -4.4 24.1
02:15 1017 30.03 846 24.98 -1.7 29 82 -4.4 24.1
02:20 1017 30.03 846 24.98 -1.6 29.1 81 -4.4 24
02:25 1017 30.03 846 24.98 -1.7 29 81 -4.5 23.9
02:30 1017 30.03 846 24.98 -1.7 28.9 82 -4.4 24.1
02:35 1017 30.03 846 24.98 -1.8 28.8 82 -4.4 24.1
02:40 1017 30.03 846 24.98 -1.8 28.7 83 -4.3 24.3
02:45 1017 30.03 846 24.98 -1.9 28.6 85 -4.1 24.7
02:50 1017 30.03 846 24.98 -2 28.4 87 -3.9 24.9
02:55 1017 30.03 846 24.98 -2.1 28.3 88 -3.8 25.1
03:00 1017 30.03 846 24.98 -2.2 28.1 89 -3.7 25.3
03:05 1017 30.03 846 24.98 -2.3 27.9 90 -3.7 25.4
03:10 1017 30.03 846 24.98 -2.3 27.8 91 -3.6 25.5
03:15 1017 30.03 846 24.98 -2.3 27.8 91 -3.6 25.6
03:20 1017 30.03 846 24.98 -2.4 27.7 91 -3.6 25.5
03:25 1017 30.03 846 24.98 -2.5 27.5 92 -3.6 25.5
03:30 1017 30.03 846 24.98 -2.5 27.5 92 -3.6 25.5
03:35 1017 30.03 847 25.01 -2.6 27.4 93 -3.6 25.6
03:40 1017 30.03 847 25.01 -2.6 27.3 93 -3.6 25.5
03:45 1017 30.03 847 25.01 -2.7 27.2 93 -3.6 25.5
03:50 1017 30.03 847 25.01 -2.7 27.1 94 -3.6 25.5
03:55 1017 30.03 847 25.01 -2.7 27.1 94 -3.6 25.5
04:00 1017 30.03 847 25.01 -2.8 27 94 -3.6 25.5
04:05 1017 30.03 847 25.01 -2.7 27.1 94 -3.6 25.5
04:10 1017 30.03 847 25.01 -2.7 27.1 94 -3.6 25.6
04:15 1017 30.03 847 25.01 -2.7 27.2 94 -3.5 25.7
04:20 1017 30.03 847 25.01 -2.7 27.2 94 -3.6 25.6
04:25 1017 30.03 847 25.01 -2.7 27.2 94 -3.5 25.6
04:30 1017 30.03 847 25.01 -2.7 27.2 94 -3.6 25.6
04:35 1017 30.03 847 25.01 -2.7 27.1 94 -3.6 25.5
04:40 1017 30.03 847 25.01 -2.7 27.1 93 -3.6 25.5
04:45 1017 30.03 847 25.01 -2.7 27.1 93 -3.7 25.4
04:50 1017 30.03 847 25.01 -2.8 27 94 -3.7 25.4
04:55 1018 30.06 847 25.01 -2.8 27 94 -3.6 25.4
05:00 1018 30.06 847 25.01 -2.8 27 94 -3.7 25.4
05:05 1018 30.06 847 25.01 -2.8 27 94 -3.7 25.4
05:10 1018 30.06 847 25.01 -2.8 27 94 -3.7 25.4
05:15 1018 30.06 847 25.01 -2.8 27 94 -3.6 25.5
05:20 1018 30.06 847 25.01 -2.8 27 94 -3.6 25.5
05:25 1018 30.06 847 25.01 -2.7 27.1 94 -3.6 25.6
05:30 1018 30.06 847 25.01 -2.8 27 94 -3.6 25.6
05:35 1018 30.06 847 25.01 -2.8 27 94 -3.6 25.6
05:40 1018 30.06 847 25.01 -2.8 27 95 -3.5 25.6
05:45 1018 30.06 848 25.04 -2.8 27 95 -3.5 25.6
05:50 1018 30.06 848 25.04 -2.7 27.1 95 -3.5 25.7
05:55 1018 30.06 848 25.04 -2.7 27.1 95 -3.5 25.7
06:00 1018 30.06 848 25.04 -2.8 27 95 -3.5 25.7
06:05 1019 30.09 848 25.04 -2.7 27.1 95 -3.4 25.8
06:10 1019 30.09 848 25.04 -2.7 27.2 95 -3.4 25.9
06:15 1019 30.09 848 25.04 -2.7 27.2 95 -3.4 25.9
06:20 1019 30.09 848 25.04 -2.6 27.3 95 -3.3 26
06:25 1019 30.09 848 25.04 -2.6 27.3 95 -3.3 26
06:30 1019 30.09 848 25.04 -2.6 27.2 95 -3.4 25.9
06:35 1019 30.09 848 25.04 -2.6 27.3 95 -3.4 25.9
06:40 1019 30.09 848 25.04 -2.6 27.3 95 -3.3 26
06:45 1019 30.09 848 25.04 -2.6 27.4 95 -3.3 26.1
06:50 1019 30.09 848 25.04 -2.6 27.4 95 -3.3 26.1
06:55 1019 30.09 849 25.07 -2.6 27.4 95 -3.3 26.1
07:00 1019 30.09 849 25.07 -2.6 27.3 95 -3.4 26
07:05 1019 30.09 849 25.07 -2.7 27.2 94 -3.4 25.8
07:10 1019 30.09 849 25.07 -2.7 27.1 95 -3.5 25.8
07:15 1020 30.12 849 25.07 -2.7 27.2 95 -3.4 25.9
07:20 1020 30.12 849 25.07 -2.6 27.3 95 -3.3 26.1
07:25 1020 30.12 849 25.07 -2.6 27.3 95 -3.3 26
07:30 1020 30.12 849 25.07 -2.6 27.4 95 -3.3 26.1
07:35 1020 30.12 849 25.07 -2.5 27.5 95 -3.2 26.2
07:40 1020 30.12 849 25.07 -2.4 27.6 95 -3.1 26.3
07:45 1020 30.12 849 25.07 -2.5 27.5 95 -3.2 26.2
07:50 1020 30.12 849 25.07 -2.5 27.5 95 -3.2 26.2
07:55 1020 30.12 849 25.07 -2.4 27.7 95 -3.1 26.4
08:00 1020 30.12 849 25.07 -2.3 27.8 95 -3 26.6
08:05 1020 30.12 849 25.07 -2.3 27.9 95 -3 26.6
08:10 1020 30.12 850 25.1 -2.4 27.7 95 -3.1 26.5
08:15 1020 30.12 850 25.1 -2.3 27.8 95 -3 26.5
08:20 1020 30.12 850 25.1 -2.2 28 95 -2.9 26.7
08:25 1021 30.15 850 25.1 -2.1 28.1 95 -2.9 26.9
08:30 1021 30.15 850 25.1 -2 28.4 95 -2.7 27.2
08:35 1021 30.15 850 25.1 -1.9 28.6 95 -2.6 27.3
08:40 1021 30.15 850 25.1 -1.9 28.6 95 -2.7 27.2
08:45 1021 30.15 850 25.1 -1.9 28.6 95 -2.6 27.4
08:50 1021 30.15 850 25.1 -1.8 28.7 95 -2.6 27.4
08:55 1021 30.15 850 25.1 -1.8 28.8 95 -2.5 27.5
09:00 1021 30.15 850 25.1 -1.7 28.9 95 -2.4 27.7
09:05 1021 30.15 850 25.1 -1.5 29.4 95 -2.2 28.1
09:10 1021 30.15 850 25.1 -1.4 29.6 95 -2.1 28.3
09:15 1021 30.15 850 25.1 -1.2 29.8 95 -1.9 28.6
09:20 1021 30.15 850 25.1 -1.1 30.1 95 -1.8 28.8
09:25 1021 30.15 850 25.1 -0.9 30.3 95 -1.6 29.1
09:30 1021 30.15 851 25.13 -0.7 30.7 95 -1.4 29.4
09:35 1021 30.15 850 25.1 -0.7 30.8 95 -1.4 29.4
09:40 1021 30.15 851 25.13 -0.6 31 95 -1.3 29.6
09:45 1022 30.18 851 25.13 -0.4 31.2 95 -1.2 29.9
09:50 1022 30.18 851 25.13 -0.4 31.3 95 -1.2 29.9
09:55 1022 30.18 851 25.13 -0.4 31.4 95 -1.1 30.1
10:00 1022 30.18 851 25.13 -0.3 31.4 95 -1.1 30.1
10:05 1022 30.18 851 25.13 -0.3 31.4 95 -1 30.1
10:10 1022 30.18 851 25.13 -0.2 31.6 95 -0.9 30.4
10:15 1022 30.18 851 25.13 -0.3 31.5 95 -1 30.3
10:20 1022 30.18 851 25.13 -0.2 31.6 95 -0.9 30.3
10:25 1022 30.18 851 25.13 -0.2 31.7 95 -0.9 30.4
10:30 1022 30.18 851 25.13 -0.2 31.7 95 -0.9 30.4
10:35 1022 30.18 851 25.13 -0.2 31.6 95 -0.9 30.4
10:40 1022 30.18 851 25.13 -0.2 31.6 95 -0.9 30.4
10:45 1022 30.18 851 25.13 -0.2 31.7 95 -0.9 30.4
10:50 1022 30.18 851 25.13 -0.2 31.6 95 -0.9 30.4
10:55 1022 30.18 851 25.13 -0.2 31.7 95 -0.9 30.4
11:00 1022 30.18 852 25.16 -0.1 31.8 95 -0.8 30.6
11:05 1022 30.18 852 25.16 -0.1 31.9 95 -0.7 30.7
11:10 1022 30.18 852 25.16 -0.1 31.8 95 -0.8 30.5
11:15 1022 30.18 852 25.16 -0.2 31.7 95 -0.9 30.4
11:20 1023 30.21 852 25.16 -0.2 31.6 95 -0.9 30.4
11:25 1023 30.21 852 25.16 -0.1 31.8 95 -0.8 30.5
11:30 1023 30.21 852 25.16 -0.1 31.8 95 -0.8 30.6
11:35 1023 30.21 852 25.16 -0 31.9 95 -0.7 30.7
11:40 1023 30.21 852 25.16 -0 31.9 95 -0.7 30.7
11:45 1023 30.21 852 25.16 -0 31.9 95 -0.7 30.8
11:50 1023 30.21 852 25.16 -0 32 95 -0.6 30.8
11:55 1023 30.21 852 25.16 -0 32 95 -0.7 30.8
12:00 1023 30.21 852 25.16 0.1 32.2 95 -0.6 31
12:05 1023 30.21 852 25.16 0.1 32.2 95 -0.6 31
12:10 1023 30.21 852 25.16 0.1 32.2 95 -0.5 31
12:15 1023 30.21 852 25.16 0.2 32.3 95 -0.5 31.1
12:20 1023 30.21 852 25.16 0.2 32.4 95 -0.5 31.1
12:25 1023 30.21 852 25.16 0.2 32.4 95 -0.5 31.1
12:30 1023 30.21 852 25.16 0.2 32.4 95 -0.6 31
12:35 1023 30.21 853 25.19 0.3 32.5 94 -0.5 31.1
12:40 1023 30.21 853 25.19 0.3 32.6 95 -0.4 31.2
12:45 1023 30.21 853 25.19 0.4 32.7 94 -0.4 31.2
12:50 1023 30.21 853 25.19 0.4 32.7 94 -0.4 31.3
12:55 1023 30.21 853 25.19 0.6 33.1 94 -0.2 31.7
13:00 1023 30.21 853 25.19 0.7 33.2 94 -0.3 31.5
13:05 1023 30.21 853 25.19 0.7 33.2 92 -0.5 31.1
13:10 1023 30.21 853 25.19 0.6 33.1 94 -0.3 31.4
13:15 1024 30.24 853 25.19 0.5 32.9 92 -0.6 30.8
13:20 1024 30.24 853 25.19 0.4 32.8 91 -0.8 30.5
13:25 1024 30.24 853 25.19 0.3 32.6 93 -0.7 30.7
13:30 1024 30.24 853 25.19 0.7 33.2 92 -0.5 31.1
13:35 1024 30.24 853 25.19 0.7 33.3 92 -0.5 31.1
13:40 1024 30.24 853 25.19 0.7 33.3 91 -0.6 30.9
13:45 1024 30.24 853 25.19 0.8 33.4 90 -0.6 30.9
13:50 1024 30.24 853 25.19 0.8 33.4 90 -0.7 30.8
13:55 1024 30.24 853 25.19 1.1 34 89 -0.5 31.2
14:00 1024 30.24 853 25.19 1.8 35.2 85 -0.5 31
14:05 1024 30.24 853 25.19 1.2 34.1 79 -2 28.4
14:10 1024 30.24 853 25.19 1.2 34.2 79 -2 28.4
14:15 1024 30.24 853 25.19 0.9 33.7 82 -1.8 28.7
14:20 1024 30.24 853 25.19 0.4 32.7 83 -2.2 28.1
14:25 1024 30.24 853 25.19 0.5 32.8 83 -2.1 28.2
14:30 1024 30.24 853 25.19 0.4 32.7 86 -1.7 28.9
14:35 1024 30.24 853 25.19 0.2 32.3 86 -1.9 28.6
14:40 1024 30.24 853 25.19 0.5 32.9 87 -1.5 29.4
14:45 1024 30.24 853 25.19 0.5 32.9 87 -1.3 29.6
14:50 1024 30.24 853 25.19 0.5 33 86 -1.5 29.3
14:55 1024 30.24 853 25.19 0.3 32.5 87 -1.6 29.1
15:00 1024 30.24 853 25.19 0.4 32.7 87 -1.5 29.4
15:05 1024 30.24 853 25.19 0.6 33.1 86 -1.5 29.4
15:10 1024 30.24 853 25.19 0.6 33 85 -1.6 29.1
15:15 1024 30.24 853 25.19 0.5 32.8 87 -1.5 29.3
15:20 1024 30.24 853 25.19 0.5 32.8 86 -1.6 29.2
15:25 1024 30.24 853 25.19 0.4 32.8 87 -1.4 29.4
15:30 1024 30.24 853 25.19 0.5 32.9 86 -1.5 29.3
15:35 1024 30.24 853 25.19 0.6 33.1 86 -1.5 29.3
15:40 1024 30.24 853 25.19 0.4 32.7 87 -1.5 29.3
15:45 1024 30.24 853 25.19 0.5 32.9 87 -1.4 29.5
15:50 1024 30.24 853 25.19 0.5 33 86 -1.6 29.1
15:55 1024 30.24 853 25.19 0.6 33.1 85 -1.6 29.1
16:00 1024 30.24 853 25.19 0.5 33 85 -1.8 28.8
16:05 1024 30.24 853 25.19 0.4 32.7 85 -1.8 28.7
16:10 1024 30.24 853 25.19 0.4 32.8 87 -1.6 29.2
16:15 1024 30.24 853 25.19 0 32 87 -1.9 28.6
16:20 1024 30.24 853 25.19 -0.3 31.5 89 -1.9 28.6
16:25 1024 30.24 853 25.19 -0.2 31.6 86 -2.2 28
16:30 1024 30.24 853 25.19 -0.2 31.6 86 -2.3 27.9
16:35 1024 30.24 853 25.19 -0.4 31.3 87 -2.3 27.8
16:40 1024 30.24 853 25.19 -0.2 31.7 85 -2.4 27.7
16:45 1024 30.24 853 25.19 -0.4 31.4 85 -2.6 27.4
16:50 1024 30.24 853 25.19 -0.3 31.4 85 -2.6 27.4
16:55 1024 30.24 854 25.22 -0.4 31.3 85 -2.5 27.4
17:00 1024 30.24 854 25.22 -0.4 31.3 85 -2.6 27.3
17:05 1024 30.24 854 25.22 -0.3 31.5 84 -2.7 27.2
17:10 1024 30.24 854 25.22 -0.3 31.4 84 -2.7 27.2
17:15 1024 30.24 854 25.22 -0.2 31.6 82 -2.9 26.8
17:20 1024 30.24 854 25.22 -0 32 81 -2.9 26.8
17:25 1024 30.24 854 25.22 -0 32 81 -2.9 26.7
17:30 1024 30.24 854 25.22 0.1 32.2 81 -2.8 26.9
17:35 1025 30.27 854 25.22 0.1 32.1 80 -3 26.7
17:40 1025 30.27 854 25.22 0.1 32.1 79 -3.2 26.2
17:45 1025 30.27 854 25.22 0.3 32.6 76 -3.5 25.7
17:50 1025 30.27 854 25.22 0.4 32.7 76 -3.4 25.9
17:55 1025 30.27 854 25.22 0.2 32.4 77 -3.4 25.9
18:00 1025 30.27 854 25.22 0.3 32.5 77 -3.4 25.9
18:05 1025 30.27 854 25.22 0.5 32.9 76 -3.2 26.3
18:10 1025 30.27 854 25.22 0.7 33.3 76 -3 26.7
18:15 1025 30.27 854 25.22 0.8 33.5 75 -3 26.5
18:20 1025 30.27 854 25.22 0.8 33.4 75 -3.2 26.2
18:25 1025 30.27 854 25.22 0.7 33.2 76 -3.1 26.4
18:30 1025 30.27 854 25.22 0.7 33.2 78 -2.7 27.2
18:35 1025 30.27 854 25.22 0.5 32.9 78 -2.9 26.8
18:40 1025 30.27 854 25.22 0.4 32.8 76 -3.3 26
18:45 1025 30.27 854 25.22 0.5 32.8 77 -3.1 26.3
18:50 1025 30.27 854 25.22 0.4 32.8 77 -3.1 26.3
18:55 1025 30.27 854 25.22 0.4 32.7 82 -2.4 27.7
19:00 1025 30.27 854 25.22 0.1 32.1 82 -2.7 27.2
19:05 1025 30.27 854 25.22 0 32.1 83 -2.5 27.4
19:10 1025 30.27 854 25.22 -0.2 31.6 85 -2.5 27.6
19:15 1025 30.27 854 25.22 -0.4 31.4 86 -2.3 27.8
19:20 1025 30.27 854 25.22 -0.5 31.1 87 -2.4 27.7
19:25 1025 30.27 854 25.22 -0.5 31.1 87 -2.5 27.6
19:30 1025 30.27 854 25.22 -0.5 31.1 87 -2.5 27.5
19:35 1025 30.27 854 25.22 -0.5 31 88 -2.3 27.9
19:40 1025 30.27 854 25.22 -0.5 31.1 89 -2.1 28.2
19:45 1025 30.27 854 25.22 -0.5 31.1 88 -2.3 27.8
19:50 1025 30.27 854 25.22 -0.6 31 88 -2.3 27.8
19:55 1025 30.27 854 25.22 -0.7 30.8 88 -2.5 27.6
20:00 1025 30.27 854 25.22 -0.8 30.6 88 -2.5 27.6
20:05 1025 30.27 854 25.22 -0.9 30.4 87 -2.7 27.1
20:10 1025 30.27 854 25.22 -1 30.3 88 -2.8 27
20:15 1025 30.27 854 25.22 -1 30.2 87 -2.8 26.9
20:20 1025 30.27 854 25.22 -1 30.3 86 -3 26.6
20:25 1025 30.27 854 25.22 -1 30.2 83 -3.5 25.8
20:30 1025 30.27 854 25.22 -1 30.2 83 -3.5 25.8
20:35 1025 30.27 854 25.22 -1.1 30.1 84 -3.4 25.8
20:40 1025 30.27 854 25.22 -1.1 30.1 83 -3.5 25.6
20:45 1025 30.27 854 25.22 -1.1 30 84 -3.5 25.7
20:50 1025 30.27 854 25.22 -1.3 29.7 86 -3.3 26.1
20:55 1025 30.27 854 25.22 -1.6 29.2 87 -3.5 25.8
21:00 1025 30.27 854 25.22 -1.8 28.8 88 -3.5 25.6
21:05 1025 30.27 854 25.22 -1.9 28.5 88 -3.6 25.5
21:10 1025 30.27 854 25.22 -1.9 28.5 88 -3.7 25.3
21:15 1025 30.27 854 25.22 -1.9 28.6 88 -3.7 25.4
21:20 1025 30.27 854 25.22 -1.9 28.5 88 -3.7 25.3
21:25 1025 30.27 854 25.22 -2 28.3 88 -3.8 25.2
21:30 1025 30.27 854 25.22 -2.1 28.2 88 -3.8 25.1
21:35 1025 30.27 854 25.22 -2 28.4 87 -3.9 24.9
21:40 1025 30.27 854 25.22 -1.7 28.9 85 -3.8 25.1
21:45 1025 30.27 854 25.22 -1.6 29.2 85 -3.7 25.3
21:50 1025 30.27 854 25.22 -1.6 29.2 85 -3.8 25.2
21:55 1025 30.27 854 25.22 -1.5 29.4 85 -3.6 25.5
22:00 1025 30.27 854 25.22 -1.6 29.2 86 -3.6 25.5
22:05 1025 30.27 854 25.22 -1.7 28.9 87 -3.7 25.4
22:10 1025 30.27 854 25.22 -1.9 28.5 87 -3.8 25.1
22:15 1025 30.27 854 25.22 -2.1 28.2 87 -4 24.9
22:20 1025 30.27 854 25.22 -2.3 27.8 88 -4.1 24.6
22:25 1025 30.27 854 25.22 -2.4 27.7 88 -4.1 24.6
22:30 1025 30.27 854 25.22 -2.5 27.5 88 -4.1 24.5
22:35 1025 30.27 854 25.22 -2.4 27.7 88 -4.2 24.5
22:40 1025 30.27 854 25.22 -2.3 27.9 87 -4.1 24.5
22:45 1025 30.27 855 25.25 -2.5 27.5 89 -4.1 24.5
22:50 1025 30.27 854 25.22 -2.7 27.1 88 -4.4 24
22:55 1025 30.27 854 25.22 -2.9 26.8 89 -4.4 24
23:00 1025 30.27 854 25.22 -2.8 26.9 88 -4.5 23.8
23:05 1025 30.27 854 25.22 -2.9 26.8 88 -4.6 23.7
23:10 1025 30.27 854 25.22 -3.2 26.3 89 -4.8 23.4
23:15 1025 30.27 854 25.22 -3.3 26.1 88 -4.9 23.1
23:20 1025 30.27 854 25.22 -3.2 26.2 88 -4.9 23.2
23:25 1025 30.27 854 25.22 -3.3 26 88 -5 23
23:30 1025 30.27 854 25.22 -3.3 26.1 87 -5.1 22.8
23:35 1025 30.27 854 25.22 -3.2 26.3 87 -5 22.9
23:40 1025 30.27 854 25.22 -3.1 26.5 87 -5 23.1
23:45 1025 30.27 854 25.22 -3.1 26.5 86 -5.1 22.8
23:50 1025 30.27 854 25.22 -3 26.6 85 -5.1 22.7
23:55 1025 30.27 854 25.22 -3 26.6 85 -5.2 22.7
24:00 1025 30.27 854 25.22 -3.2 26.3 86 -5.2 22.6